Time;durP1;ratioP1;P1;durP2;ratioP2;P2;SDS_P1;SDS_P2;PMS_P1;PMS_P2;Temp;Humidity;BMP_temperature;BMP_pressure;BME280_temperature;BME280_humidity;BME280_pressure;Samples;Min_cycle;Max_cycle;Signal;HPM_P1;HPM_P2
2021/12/01 00:01:48;;;;;;;;;6.25;3.75;;;;;14.65;100.00;100557.03;5063292;28;45482;-81
2021/12/01 00:04:13;;;;;;;;;5.50;4.00;;;;;14.83;100.00;100554.56;5079712;28;45500;-81
2021/12/01 00:06:39;;;;;;;;;8.25;7.00;;;;;15.09;100.00;100560.22;5081636;28;45241;-82
2021/12/01 00:09:04;;;;;;;;;5.25;4.50;;;;;14.81;100.00;100554.69;5076750;28;46433;-82
2021/12/01 00:11:30;;;;;;;;;5.75;3.25;;;;;14.93;100.00;100540.31;5079793;28;45404;-81
2021/12/01 00:13:55;;;;;;;;;7.00;6.00;;;;;14.90;100.00;100545.06;5061673;28;45793;-81
2021/12/01 00:16:21;;;;;;;;;8.75;6.25;;;;;15.04;100.00;100542.00;5072207;28;46778;-82
2021/12/01 00:18:47;;;;;;;;;7.75;3.75;;;;;14.98;100.00;100535.44;5070393;28;45489;-82
2021/12/01 00:21:12;;;;;;;;;4.00;3.75;;;;;14.90;100.00;100521.97;5056189;28;45258;-82
2021/12/01 00:23:37;;;;;;;;;5.00;5.00;;;;;14.87;100.00;100510.78;5068806;28;45245;-81
2021/12/01 00:26:04;;;;;;;;;7.00;3.75;;;;;15.04;100.00;100498.63;5071867;28;45490;-81
2021/12/01 00:28:30;;;;;;;;;6.25;3.75;;;;;14.95;100.00;100500.28;5079571;27;46360;-82
2021/12/01 00:30:57;;;;;;;;;11.00;5.00;;;;;14.96;100.00;100476.22;5077018;27;45313;-82
2021/12/01 00:33:22;;;;;;;;;7.50;6.00;;;;;14.97;100.00;100458.44;5062789;28;45446;-82
2021/12/01 00:35:56;;;;;;;;;5.50;5.50;;;;;15.03;100.00;100454.38;5077128;28;45516;-82
2021/12/01 00:38:23;;;;;;;;;7.75;5.50;;;;;15.00;100.00;100449.38;5077386;28;46083;-82
2021/12/01 00:40:49;;;;;;;;;8.25;4.25;;;;;14.91;100.00;100433.28;5052164;28;45427;-81
2021/12/01 00:43:17;;;;;;;;;4.00;4.00;;;;;14.90;100.00;100412.97;5050107;28;45483;-82
2021/12/01 00:45:53;;;;;;;;;0.00;0.00;;;;;15.07;100.00;100423.88;5065330;28;45424;-81
2021/12/01 00:48:19;;;;;;;;;7.75;5.00;;;;;14.89;100.00;100421.94;5054694;28;48789;-81
2021/12/01 00:50:45;;;;;;;;;6.50;6.00;;;;;14.97;100.00;100406.13;5065672;28;45463;-82
2021/12/01 00:53:11;;;;;;;;;6.75;4.00;;;;;14.99;100.00;100390.03;5074356;28;45296;-82
2021/12/01 00:55:37;;;;;;;;;9.00;6.00;;;;;14.82;100.00;100386.25;5066769;28;45165;-82
2021/12/01 00:58:03;;;;;;;;;6.50;4.00;;;;;14.84;100.00;100384.25;5080107;28;45554;-81
2021/12/01 01:00:30;;;;;;;;;3.50;3.00;;;;;15.00;100.00;100369.59;5078142;28;45508;-82
2021/12/01 01:02:59;;;;;;;;;5.00;5.00;;;;;14.81;100.00;100360.66;5058574;28;45455;-82
2021/12/01 01:05:25;;;;;;;;;6.50;6.00;;;;;14.70;100.00;100374.06;5068734;28;45402;-82
2021/12/01 01:07:53;;;;;;;;;4.00;3.00;;;;;14.77;100.00;100351.25;5058125;28;46379;-82
2021/12/01 01:18:23;;;;;;;;;6.00;2.00;;;;;14.84;100.00;100351.56;5075320;28;45647;-82
2021/12/01 01:20:49;;;;;;;;;3.50;3.50;;;;;14.71;100.00;100330.56;5061787;28;45977;-82
2021/12/01 01:23:14;;;;;;;;;6.00;3.00;;;;;15.04;100.00;100339.06;5076992;28;45450;-82
2021/12/01 01:25:40;;;;;;;;;6.25;2.50;;;;;14.87;100.00;100325.50;5067536;28;45516;-82
2021/12/01 01:28:05;;;;;;;;;2.00;2.00;;;;;14.77;100.00;100313.19;5053173;28;47446;-82
2021/12/01 01:30:31;;;;;;;;;3.00;3.00;;;;;14.84;100.00;100309.03;5065134;28;45505;-82
2021/12/01 01:32:57;;;;;;;;;1.25;0.50;;;;;14.74;100.00;100309.03;5080672;28;45272;-82
2021/12/01 01:35:22;;;;;;;;;4.75;3.00;;;;;14.74;100.00;100306.38;5060254;28;45257;-82
2021/12/01 01:37:48;;;;;;;;;6.25;6.00;;;;;14.76;100.00;100311.53;5080396;28;45441;-82
2021/12/01 01:40:14;;;;;;;;;3.00;3.00;;;;;14.64;100.00;100294.91;5074651;28;45236;-82
2021/12/01 01:42:40;;;;;;;;;4.50;3.75;;;;;14.73;100.00;100301.19;5070704;28;45317;-82
2021/12/01 01:45:05;;;;;;;;;6.25;4.25;;;;;14.73;100.00;100294.06;5073872;28;45331;-82
2021/12/01 01:47:31;;;;;;;;;4.50;4.00;;;;;14.81;100.00;100299.50;5074650;28;45323;-82
2021/12/01 01:50:22;;;;;;;;;5.50;4.00;;;;;14.48;100.00;100292.78;5080087;28;45306;-82
2021/12/01 01:52:45;;;;;;;;;7.75;3.00;;;;;14.74;100.00;100285.09;5077859;28;45414;-82
2021/12/01 01:55:10;;;;;;;;;6.00;6.00;;;;;14.80;100.00;100295.16;5067624;28;45380;-82
2021/12/01 01:57:36;;;;;;;;;7.25;5.00;;;;;14.86;100.00;100301.72;5060318;28;47309;-82
2021/12/01 02:00:07;;;;;;;;;6.00;4.00;;;;;14.72;100.00;100278.25;5079558;28;45349;-82
2021/12/01 02:02:32;;;;;;;;;6.25;4.50;;;;;15.05;100.00;100271.59;5078604;28;45492;-82
2021/12/01 02:04:58;;;;;;;;;15.00;6.75;;;;;14.85;100.00;100284.94;5063785;28;46106;-82
2021/12/01 02:07:23;;;;;;;;;6.00;6.00;;;;;14.68;100.00;100290.13;5075038;28;46188;-82
2021/12/01 02:09:49;;;;;;;;;7.50;4.00;;;;;14.96;100.00;100270.66;5062217;28;45355;-82
2021/12/01 02:12:14;;;;;;;;;9.75;6.00;;;;;14.77;100.00;100266.19;5062343;28;45529;-82
2021/12/01 02:14:41;;;;;;;;;7.50;4.00;;;;;14.66;100.00;100266.34;5080803;28;45459;-82
2021/12/01 02:17:07;;;;;;;;;2.50;2.00;;;;;14.59;100.00;100257.25;5066832;28;45449;-82
2021/12/01 02:19:36;;;;;;;;;9.00;8.25;;;;;14.64;100.00;100249.72;5079806;28;45301;-82
2021/12/01 02:22:02;;;;;;;;;6.00;4.00;;;;;14.63;100.00;100261.34;5083056;28;45515;-82
2021/12/01 02:24:27;;;;;;;;;9.25;6.75;;;;;14.67;100.00;100243.25;5079346;28;45491;-82
2021/12/01 02:26:53;;;;;;;;;8.25;6.00;;;;;14.60;100.00;100245.66;5071951;28;46247;-82
2021/12/01 02:29:23;;;;;;;;;9.00;8.00;;;;;15.87;100.00;100239.78;5073090;28;45332;-82
2021/12/01 02:31:50;;;;;;;;;9.75;8.50;;;;;14.96;100.00;100233.41;5081437;28;45260;-82
2021/12/01 02:34:18;;;;;;;;;15.75;11.50;;;;;14.91;100.00;100236.53;5081633;28;45586;-82
2021/12/01 02:36:47;;;;;;;;;10.75;8.50;;;;;14.92;100.00;100227.56;5083713;28;45557;-83
2021/12/01 02:39:15;;;;;;;;;8.00;8.00;;;;;14.97;100.00;100212.00;5085332;28;45178;-82
2021/12/01 02:41:43;;;;;;;;;13.00;8.00;;;;;15.14;100.00;100213.06;5065112;28;45231;-82
2021/12/01 02:44:11;;;;;;;;;12.25;7.00;;;;;14.92;100.00;100203.66;5069590;28;45470;-82
2021/12/01 02:46:37;;;;;;;;;10.25;9.25;;;;;14.85;100.00;100191.88;5082011;28;46238;-82
2021/12/01 02:49:04;;;;;;;;;14.00;9.25;;;;;20.44;100.00;100173.34;5062691;28;45434;-82
2021/12/01 02:51:32;;;;;;;;;10.75;7.50;;;;;15.56;100.00;100184.22;5073239;28;45318;-82
2021/12/01 02:53:58;;;;;;;;;7.25;7.00;;;;;15.19;100.00;100162.13;5056286;28;45546;-82
2021/12/01 02:56:23;;;;;;;;;14.00;10.25;;;;;15.23;100.00;100158.16;5074619;27;46201;-82
2021/12/01 02:58:50;;;;;;;;;8.00;8.00;;;;;15.24;100.00;100143.88;5093453;27;45369;-82
2021/12/01 03:01:22;;;;;;;;;12.25;8.00;;;;;15.31;100.00;100135.16;5074643;28;45492;-82
2021/12/01 03:03:49;;;;;;;;;9.00;8.00;;;;;15.23;100.00;100128.91;5082097;28;45631;-82
2021/12/01 03:06:18;;;;;;;;;8.00;6.25;;;;;15.23;100.00;100124.41;5059642;28;48333;-82
2021/12/01 03:08:45;;;;;;;;;7.25;4.50;;;;;15.22;100.00;100117.41;5057134;28;45445;-82
2021/12/01 03:11:12;;;;;;;;;6.25;6.25;;;;;15.26;100.00;100102.00;5055444;27;45403;-82
2021/12/01 03:13:38;;;;;;;;;4.00;4.00;;;;;15.22;100.00;100098.81;5093199;27;45338;-82
2021/12/01 03:16:04;;;;;;;;;3.75;3.00;;;;;15.08;100.00;100079.88;5074408;28;46664;-82
2021/12/01 03:18:29;;;;;;;;;6.00;4.00;;;;;15.10;100.00;100065.44;5058786;28;45515;-82
2021/12/01 03:20:56;;;;;;;;;3.25;3.00;;;;;15.29;100.00;100073.31;5080463;28;45392;-82
2021/12/01 03:23:22;;;;;;;;;2.25;2.25;;;;;15.30;100.00;100068.78;5055870;28;45489;-82
2021/12/01 03:25:48;;;;;;;;;2.50;2.50;;;;;15.22;100.00;100055.41;5078265;28;46649;-82
2021/12/01 03:28:13;;;;;;;;;4.50;3.00;;;;;15.18;100.00;100060.22;5071681;28;45321;-82
2021/12/01 03:30:39;;;;;;;;;1.75;1.00;;;;;15.32;100.00;100058.84;5053709;28;45414;-82
2021/12/01 03:33:08;;;;;;;;;2.00;2.00;;;;;15.45;100.00;100064.66;5074744;28;45300;-82
2021/12/01 03:35:36;;;;;;;;;2.00;2.00;;;;;15.21;100.00;100043.09;5073945;28;46458;-82
2021/12/01 03:38:02;;;;;;;;;3.25;1.75;;;;;15.33;100.00;100033.91;5082019;28;45570;-82
2021/12/01 03:40:28;;;;;;;;;2.25;2.00;;;;;15.14;100.00;100042.03;5081017;28;45312;-82
2021/12/01 03:42:53;;;;;;;;;2.25;2.00;;;;;15.53;100.00;100031.94;5081368;28;45494;-82
2021/12/01 03:45:19;;;;;;;;;2.25;2.25;;;;;15.39;100.00;100021.84;5082755;28;45258;-82
2021/12/01 03:47:45;;;;;;;;;2.75;2.75;;;;;15.26;100.00;100014.25;5081057;28;45241;-82
2021/12/01 03:50:10;;;;;;;;;2.25;0.00;;;;;15.26;100.00;100007.09;5075968;28;45303;-82
2021/12/01 03:52:37;;;;;;;;;3.00;1.00;;;;;15.12;100.00;99993.47;5067635;28;45344;-82
2021/12/01 03:55:04;;;;;;;;;1.75;1.75;;;;;15.28;100.00;99991.00;5061215;28;47711;-82
2021/12/01 03:57:29;;;;;;;;;1.75;1.00;;;;;15.01;100.00;99985.72;5072746;28;45363;-82
2021/12/01 03:59:54;;;;;;;;;3.00;3.00;;;;;15.13;100.00;99969.38;5065255;28;45264;-82
2021/12/01 04:02:20;;;;;;;;;3.00;2.00;;;;;15.17;100.00;99968.09;5069311;28;45449;-82
2021/12/01 04:04:45;;;;;;;;;3.00;3.00;;;;;15.15;100.00;99974.56;5057510;28;48434;-82
2021/12/01 04:07:11;;;;;;;;;3.00;3.00;;;;;15.13;100.00;99955.25;5061555;28;45585;-82
2021/12/01 04:09:39;;;;;;;;;2.00;2.00;;;;;15.08;100.00;99945.09;5081597;28;45325;-81
2021/12/01 04:12:05;;;;;;;;;1.00;0.25;;;;;15.03;100.00;99930.56;5070380;28;46865;-82
2021/12/01 04:14:30;;;;;;;;;4.50;4.50;;;;;15.12;100.00;99922.50;5086843;27;46246;-82
2021/12/01 04:16:56;;;;;;;;;3.00;3.00;;;;;15.33;100.00;99892.94;5071118;28;45229;-81
2021/12/01 04:19:21;;;;;;;;;3.25;3.25;;;;;14.94;100.00;99898.56;5083542;27;45750;-81
2021/12/01 04:21:47;;;;;;;;;7.50;2.75;;;;;14.93;100.00;99890.78;5088387;27;45132;-81
2021/12/01 04:24:12;;;;;;;;;6.75;3.00;;;;;14.90;100.00;99883.94;5051808;28;46211;-81
2021/12/01 04:26:38;;;;;;;;;3.50;3.00;;;;;14.85;100.00;99883.53;5072083;28;45421;-81
2021/12/01 04:29:05;;;;;;;;;5.75;3.25;;;;;14.98;100.00;99889.31;5081315;28;45386;-82
2021/12/01 04:31:33;;;;;;;;;7.25;6.00;;;;;14.76;100.00;99879.13;5065493;28;45485;-81
2021/12/01 04:33:58;;;;;;;;;9.00;5.00;;;;;14.71;100.00;99870.78;5069502;28;46150;-82
2021/12/01 04:36:36;;;;;;;;;7.75;6.00;;;;;14.88;100.00;99856.66;5078571;27;45278;-81
2021/12/01 04:39:04;;;;;;;;;8.00;6.00;;;;;14.66;100.00;99865.06;5051619;28;45354;-82
2021/12/01 04:41:36;;;;;;;;;8.25;3.75;;;;;14.57;100.00;99845.56;5046335;28;45900;-81
2021/12/01 04:44:08;;;;;;;;;10.25;6.00;;;;;14.48;100.00;99845.63;5061933;28;45484;-82
2021/12/01 04:46:40;;;;;;;;;7.50;4.00;;;;;14.48;100.00;99838.50;5063683;28;45249;-82
2021/12/01 04:49:05;;;;;;;;;5.50;5.50;;;;;14.64;100.00;99839.66;5070097;28;45462;-82
2021/12/01 04:51:30;;;;;;;;;7.00;4.00;;;;;14.50;100.00;99825.91;5069041;28;45278;-82
2021/12/01 04:53:58;;;;;;;;;8.00;4.00;;;;;14.49;100.00;99821.56;5066320;28;45709;-82
2021/12/01 04:56:24;;;;;;;;;5.75;3.50;;;;;14.48;100.00;99829.69;5083916;28;45307;-82
2021/12/01 04:58:50;;;;;;;;;9.50;3.00;;;;;14.36;100.00;99810.47;5098374;27;45259;-82
2021/12/01 05:01:17;;;;;;;;;1.50;1.50;;;;;14.38;100.00;99805.00;5060370;28;45782;-82
2021/12/01 05:03:43;;;;;;;;;3.00;2.00;;;;;14.43;100.00;99787.66;5073202;28;46356;-81
2021/12/01 05:06:12;;;;;;;;;6.50;2.00;;;;;14.48;100.00;99789.84;5053534;28;46183;-82
2021/12/01 05:08:37;;;;;;;;;2.50;1.00;;;;;14.52;100.00;99797.38;5082435;28;45214;-80
2021/12/01 05:11:03;;;;;;;;;2.75;2.00;;;;;14.60;100.00;99778.00;5092171;27;45215;-81
2021/12/01 05:13:28;;;;;;;;;6.00;1.25;;;;;14.64;100.00;99768.75;5052467;28;47176;-82
2021/12/01 05:15:54;;;;;;;;;1.75;1.00;;;;;14.55;100.00;99762.53;5086504;27;45243;-82
2021/12/01 05:18:20;;;;;;;;;2.00;1.00;;;;;14.53;100.00;99761.00;5051193;28;45344;-82
2021/12/01 05:20:45;;;;;;;;;3.00;2.00;;;;;15.59;100.00;99767.91;5091887;27;45267;-82
2021/12/01 05:23:15;;;;;;;;;0.00;0.00;;;;;15.29;100.00;99739.97;5074625;28;46389;-81
2021/12/01 05:25:44;;;;;;;;;1.75;1.75;;;;;15.21;100.00;99743.38;5054425;28;45355;-82
2021/12/01 05:28:09;;;;;;;;;1.00;1.00;;;;;15.20;100.00;99741.75;5075002;28;45321;-82
2021/12/01 05:30:35;;;;;;;;;0.50;0.00;;;;;14.88;100.00;99745.03;5057306;28;45990;-83
2021/12/01 05:33:05;;;;;;;;;0.00;0.00;;;;;14.70;100.00;99746.03;5080497;27;47848;-81
2021/12/01 05:35:33;;;;;;;;;0.00;0.00;;;;;14.75;100.00;99739.25;5098697;28;45389;-81
2021/12/01 05:37:58;;;;;;;;;2.25;1.00;;;;;14.66;100.00;99734.06;5095160;27;44861;-81
2021/12/01 05:40:24;;;;;;;;;0.00;0.00;;;;;14.69;100.00;99734.56;5088065;28;44712;-80
2021/12/01 05:42:49;;;;;;;;;0.00;0.00;;;;;14.69;100.00;99731.91;5070212;28;47133;-82
2021/12/01 05:45:15;;;;;;;;;0.00;0.00;;;;;14.86;100.00;99720.41;5072753;27;45878;-81
2021/12/01 05:47:41;;;;;;;;;0.00;0.00;;;;;14.86;100.00;99724.88;5052355;28;45476;-82
2021/12/01 05:50:07;;;;;;;;;0.00;0.00;;;;;14.72;100.00;99705.03;5072376;28;45323;-81
2021/12/01 05:52:33;;;;;;;;;0.00;0.00;;;;;14.80;100.00;99707.75;5062929;28;47135;-81
2021/12/01 05:54:58;;;;;;;;;0.25;0.00;;;;;14.85;100.00;99701.94;5084947;28;45394;-81
2021/12/01 05:57:23;;;;;;;;;0.00;0.00;;;;;14.81;100.00;99700.63;5071919;28;45297;-81
2021/12/01 05:59:49;;;;;;;;;0.00;0.00;;;;;14.80;100.00;99701.59;5097175;27;45401;-80
2021/12/01 06:02:15;;;;;;;;;2.00;0.00;;;;;14.79;100.00;99694.63;5083469;27;45388;-80
2021/12/01 06:04:40;;;;;;;;;0.00;0.00;;;;;15.14;100.00;99689.19;5063030;28;45614;-80
2021/12/01 06:07:06;;;;;;;;;0.00;0.00;;;;;14.93;100.00;99697.53;5085215;28;45494;-80
2021/12/01 06:09:31;;;;;;;;;0.00;0.00;;;;;15.35;100.00;99692.28;5085100;27;45537;-82
2021/12/01 06:11:57;;;;;;;;;0.00;0.00;;;;;15.52;100.00;99677.22;5088883;27;45607;-83
2021/12/01 06:14:22;;;;;;;;;0.00;0.00;;;;;15.45;100.00;99665.56;5079552;28;45422;-84
2021/12/01 06:16:47;;;;;;;;;0.00;0.00;;;;;15.85;100.00;99664.00;5076907;28;45554;-82
2021/12/01 06:19:13;;;;;;;;;0.00;0.00;;;;;15.81;100.00;99670.66;5048129;28;45992;-83
2021/12/01 06:21:38;;;;;;;;;0.00;0.00;;;;;15.95;100.00;99659.38;5069487;28;46382;-81
2021/12/01 06:24:04;;;;;;;;;0.25;0.00;;;;;15.93;100.00;99653.41;5072050;28;45374;-81
2021/12/01 06:26:29;;;;;;;;;0.00;0.00;;;;;15.86;100.00;99626.56;5077015;28;45290;-81
2021/12/01 06:28:55;;;;;;;;;0.00;0.00;;;;;15.80;100.00;99634.41;5073398;27;45315;-82
2021/12/01 06:31:20;;;;;;;;;0.00;0.00;;;;;15.91;100.00;99634.09;5070291;27;45340;-82
2021/12/01 06:33:45;;;;;;;;;0.00;0.00;;;;;15.76;100.00;99635.72;5054887;28;45345;-82
2021/12/01 06:36:11;;;;;;;;;2.00;0.75;;;;;15.86;100.00;99641.72;5061514;28;45348;-80
2021/12/01 06:38:38;;;;;;;;;1.00;1.00;;;;;15.82;100.00;99649.22;5069035;28;45493;-81
2021/12/01 06:41:05;;;;;;;;;0.00;0.00;;;;;16.02;100.00;99636.44;5055275;28;47683;-85
2021/12/01 06:43:31;;;;;;;;;1.00;0.00;;;;;15.88;100.00;99624.59;5083000;28;45467;-83
2021/12/01 06:45:56;;;;;;;;;0.00;0.00;;;;;15.63;100.00;99605.09;5062731;28;45423;-80
2021/12/01 06:48:21;;;;;;;;;0.00;0.00;;;;;15.58;100.00;99618.03;5059471;28;45545;-80
2021/12/01 06:50:47;;;;;;;;;0.00;0.00;;;;;15.74;100.00;99608.44;5076206;28;45480;-82
2021/12/01 06:53:12;;;;;;;;;0.00;0.00;;;;;15.82;100.00;99605.78;5079173;27;45503;-79
2021/12/01 06:55:37;;;;;;;;;0.00;0.00;;;;;15.70;100.00;99600.78;5077287;28;45564;-79
2021/12/01 06:58:03;;;;;;;;;0.00;0.00;;;;;15.68;100.00;99596.59;5076458;27;46483;-79
2021/12/01 07:00:30;;;;;;;;;1.75;0.00;;;;;15.98;100.00;99601.31;5053346;28;47415;-79
2021/12/01 07:02:55;;;;;;;;;0.00;0.00;;;;;15.94;100.00;99604.44;5077993;27;45425;-79
2021/12/01 07:05:21;;;;;;;;;0.00;0.00;;;;;16.13;100.00;99598.78;5080268;27;45890;-79
2021/12/01 07:07:46;;;;;;;;;2.00;0.00;;;;;16.27;100.00;99606.13;5078971;27;45573;-79
2021/12/01 07:10:13;;;;;;;;;2.00;0.00;;;;;16.26;100.00;99596.47;5077856;28;45607;-79
2021/12/01 07:12:40;;;;;;;;;0.00;0.00;;;;;16.11;100.00;99590.16;5059037;28;45560;-80
2021/12/01 07:15:07;;;;;;;;;0.00;0.00;;;;;16.29;100.00;99582.81;5079851;27;45454;-78
2021/12/01 07:17:32;;;;;;;;;0.00;0.00;;;;;16.15;100.00;99585.31;5082484;27;45641;-80
2021/12/01 07:19:58;;;;;;;;;0.00;0.00;;;;;16.18;100.00;99582.34;5058253;28;46195;-79
2021/12/01 07:22:23;;;;;;;;;0.00;0.00;;;;;16.27;100.00;99582.16;5081665;27;45418;-78
2021/12/01 07:24:49;;;;;;;;;0.00;0.00;;;;;16.17;100.00;99584.16;5080270;28;45425;-79
2021/12/01 07:27:15;;;;;;;;;0.00;0.00;;;;;16.24;100.00;99598.47;5075742;28;45522;-79
2021/12/01 07:29:42;;;;;;;;;0.00;0.00;;;;;16.24;100.00;99589.63;5080860;27;45463;-80
2021/12/01 07:32:09;;;;;;;;;0.00;0.00;;;;;16.28;100.00;99580.31;5077807;27;45544;-79
2021/12/01 07:34:41;;;;;;;;;0.00;0.00;;;;;16.11;100.00;99587.50;5073495;27;45453;-79
2021/12/01 07:37:17;;;;;;;;;0.00;0.00;;;;;16.15;100.00;99594.13;5073695;27;45694;-77
2021/12/01 07:39:43;;;;;;;;;1.50;0.00;;;;;16.24;100.00;99597.63;5041105;28;48675;-77
2021/12/01 07:42:10;;;;;;;;;0.25;0.00;;;;;16.44;100.00;99585.63;5075142;28;45339;-79
2021/12/01 07:44:35;;;;;;;;;0.00;0.00;;;;;16.52;100.00;99590.94;5076555;28;45616;-78
2021/12/01 07:47:01;;;;;;;;;0.50;0.00;;;;;16.56;100.00;99597.59;5075034;28;45481;-78
2021/12/01 07:49:26;;;;;;;;;0.00;0.00;;;;;16.65;100.00;99590.44;5077674;28;46326;-77
2021/12/01 07:51:52;;;;;;;;;0.00;0.00;;;;;16.57;100.00;99591.25;5079007;28;45445;-77
2021/12/01 07:54:18;;;;;;;;;1.00;0.00;;;;;16.53;100.00;99594.44;5056000;28;45443;-77
2021/12/01 07:56:44;;;;;;;;;2.00;0.00;;;;;16.69;100.00;99589.09;5077346;27;45865;-77
2021/12/01 07:59:13;;;;;;;;;1.00;0.00;;;;;16.94;100.00;99593.34;5061852;28;46906;-78
2021/12/01 08:01:38;;;;;;;;;0.00;0.00;;;;;17.02;100.00;99579.16;5075487;28;45531;-77
2021/12/01 08:04:04;;;;;;;;;0.00;0.00;;;;;17.19;100.00;99575.41;5080479;27;45397;-77
2021/12/01 08:06:32;;;;;;;;;0.00;0.00;;;;;17.03;100.00;99564.81;5056822;28;45818;-78
2021/12/01 08:09:00;;;;;;;;;0.75;0.00;;;;;17.12;100.00;99569.09;5075107;28;45966;-78
2021/12/01 08:11:25;;;;;;;;;1.00;0.00;;;;;17.03;100.00;99568.31;5059400;28;45719;-78
2021/12/01 08:13:51;;;;;;;;;2.50;0.00;;;;;17.19;100.00;99565.56;5076534;28;45569;-78
2021/12/01 08:16:16;;;;;;;;;0.00;0.00;;;;;17.10;100.00;99569.28;5074870;28;45498;-78
2021/12/01 08:18:42;;;;;;;;;0.00;0.00;;;;;17.26;100.00;99565.69;5069616;28;46013;-78
2021/12/01 08:21:07;;;;;;;;;0.25;0.00;;;;;17.18;100.00;99558.56;5077799;27;45457;-78
2021/12/01 08:23:32;;;;;;;;;0.00;0.00;;;;;16.97;100.00;99561.00;5078110;27;45778;-78
2021/12/01 08:25:58;;;;;;;;;2.00;0.00;;;;;16.99;100.00;99553.66;5058275;28;46602;-78
2021/12/01 08:28:23;;;;;;;;;0.00;0.00;;;;;17.08;100.00;99543.78;5081732;27;46153;-78
2021/12/01 08:30:49;;;;;;;;;0.00;0.00;;;;;17.15;100.00;99550.91;5078459;27;45466;-79
2021/12/01 08:33:14;;;;;;;;;1.50;0.00;;;;;17.18;100.00;99539.91;5085254;27;45451;-78
2021/12/01 08:35:40;;;;;;;;;0.00;0.00;;;;;17.23;100.00;99539.38;5055740;28;45477;-78
2021/12/01 08:38:05;;;;;;;;;0.00;0.00;;;;;17.41;100.00;99542.59;5069650;28;45529;-79
2021/12/01 08:40:31;;;;;;;;;0.00;0.00;;;;;17.51;100.00;99537.03;5092219;27;45246;-79
2021/12/01 08:42:56;;;;;;;;;0.50;0.00;;;;;17.24;100.00;99541.03;5069973;28;45490;-78
2021/12/01 08:45:22;;;;;;;;;0.00;0.00;;;;;17.54;100.00;99555.38;5062891;28;46682;-79
2021/12/01 08:47:49;;;;;;;;;0.00;0.00;;;;;17.64;100.00;99542.66;5068093;28;45388;-79
2021/12/01 08:50:15;;;;;;;;;1.25;0.00;;;;;17.59;100.00;99547.63;5057896;28;45407;-79
2021/12/01 08:52:41;;;;;;;;;1.50;0.00;;;;;17.62;100.00;99551.81;5081246;28;45174;-79
2021/12/01 08:55:07;;;;;;;;;1.75;0.25;;;;;17.58;100.00;99544.13;5079293;28;45153;-79
2021/12/01 08:57:33;;;;;;;;;0.75;0.00;;;;;17.55;100.00;99538.34;5083254;27;46367;-79
2021/12/01 08:59:58;;;;;;;;;1.00;1.00;;;;;17.46;100.00;99528.72;5073545;28;45413;-79
2021/12/01 09:02:24;;;;;;;;;2.25;2.25;;;;;17.75;100.00;99528.88;5082035;28;45355;-79
2021/12/01 09:04:52;;;;;;;;;2.50;1.50;;;;;17.75;100.00;99534.22;5050334;28;45803;-78
2021/12/01 09:07:19;;;;;;;;;2.00;1.00;;;;;17.87;100.00;99537.28;5069918;28;46070;-78
2021/12/01 09:09:45;;;;;;;;;2.00;0.00;;;;;18.06;100.00;99533.28;5071256;28;45221;-79
2021/12/01 09:12:13;;;;;;;;;0.00;0.00;;;;;18.01;100.00;99535.69;5076613;28;45165;-78
2021/12/01 09:14:38;;;;;;;;;0.00;0.00;;;;;18.27;100.00;99528.91;5061747;28;45445;-78
2021/12/01 09:17:04;;;;;;;;;1.50;1.00;;;;;18.48;100.00;99538.06;5068841;28;45800;-78
2021/12/01 09:19:29;;;;;;;;;0.00;0.00;;;;;18.53;100.00;99531.13;5077936;28;45521;-78
2021/12/01 09:21:55;;;;;;;;;1.50;1.50;;;;;18.50;100.00;99522.63;5079789;28;45450;-78
2021/12/01 09:24:21;;;;;;;;;4.00;2.50;;;;;18.53;100.00;99524.94;5079300;28;45435;-79
2021/12/01 09:26:47;;;;;;;;;3.00;1.00;;;;;18.12;100.00;99553.94;5079568;28;46042;-79
2021/12/01 09:29:13;;;;;;;;;4.00;2.00;;;;;18.01;100.00;99520.47;5080297;28;45158;-78
2021/12/01 09:31:38;;;;;;;;;2.00;1.00;;;;;18.25;100.00;99527.41;5080667;28;45177;-79
2021/12/01 09:34:04;;;;;;;;;0.50;0.00;;;;;18.24;100.00;99521.25;5080405;28;45325;-79
2021/12/01 09:36:29;;;;;;;;;3.00;1.25;;;;;17.67;100.00;99523.59;5062986;28;47664;-79
2021/12/01 09:38:56;;;;;;;;;2.00;0.00;;;;;17.57;100.00;99529.13;5080512;28;45379;-78
2021/12/01 09:41:21;;;;;;;;;0.00;0.00;;;;;17.84;100.00;99525.13;5066482;28;45463;-79
2021/12/01 09:43:47;;;;;;;;;0.75;0.00;;;;;17.87;100.00;99522.09;5077386;28;45614;-79
2021/12/01 09:46:12;;;;;;;;;1.00;1.00;;;;;17.76;100.00;99546.53;5080992;28;45308;-79
2021/12/01 09:48:39;;;;;;;;;0.00;0.00;;;;;17.74;100.00;99537.91;5080362;28;45480;-79
2021/12/01 09:51:10;;;;;;;;;2.75;0.00;;;;;17.85;100.00;99545.47;5080049;28;45338;-80
2021/12/01 09:53:36;;;;;;;;;2.00;0.00;;;;;17.57;100.00;99542.47;5080358;28;45313;-80
2021/12/01 09:56:02;;;;;;;;;2.25;0.00;;;;;17.75;100.00;99560.94;5079011;28;46853;-79
2021/12/01 09:58:32;;;;;;;;;0.25;0.25;;;;;17.95;100.00;99558.56;5094195;27;45231;-80
2021/12/01 10:01:04;;;;;;;;;0.50;0.50;;;;;17.98;100.00;99549.38;5082571;27;45451;-79
2021/12/01 10:03:30;;;;;;;;;1.25;0.00;;;;;17.82;100.00;99553.03;5100332;27;45365;-79
2021/12/01 10:06:09;;;;;;;;;0.00;0.00;;;;;18.01;100.00;99555.22;5100329;27;46340;-79
2021/12/01 10:08:45;;;;;;;;;0.25;0.00;;;;;17.98;100.00;99554.72;5100617;27;45475;-80
2021/12/01 10:11:12;;;;;;;;;1.00;0.00;;;;;17.83;100.00;99555.53;5100732;27;45497;-79
2021/12/01 10:13:42;;;;;;;;;0.00;0.00;;;;;17.51;100.00;99571.72;5066637;28;46018;-79
2021/12/01 10:16:10;;;;;;;;;2.75;1.00;;;;;17.28;100.00;99578.88;5072981;28;46705;-79
2021/12/01 10:18:38;;;;;;;;;1.25;1.00;;;;;16.96;100.00;99570.00;5086228;28;45268;-79
2021/12/01 10:21:22;;;;;;;;;0.00;0.00;;;;;16.63;100.00;99577.28;5067403;28;45319;-79
2021/12/01 10:23:50;;;;;;;;;1.75;0.00;;;;;16.63;100.00;99577.28;5083485;28;45707;-79
2021/12/01 10:26:27;;;;;;;;;0.00;0.00;;;;;16.69;100.00;99560.59;5083450;28;46377;-79
2021/12/01 10:28:56;;;;;;;;;0.50;0.00;;;;;15.99;100.00;99560.38;5065258;28;45253;-79
2021/12/01 10:31:38;;;;;;;;;3.25;1.00;;;;;15.92;100.00;99582.50;5083222;28;45364;-79
2021/12/01 10:34:21;;;;;;;;;0.75;0.00;;;;;15.66;100.00;99570.16;5083159;28;45475;-78
2021/12/01 10:36:49;;;;;;;;;1.00;1.00;;;;;15.79;100.00;99582.16;5064147;28;46245;-79
2021/12/01 10:39:15;;;;;;;;;5.25;1.00;;;;;15.47;100.00;99580.25;5083167;28;45612;-78
2021/12/01 10:41:42;;;;;;;;;1.50;1.00;;;;;15.48;100.00;99584.59;5081071;28;45232;-78
2021/12/01 10:44:19;;;;;;;;;3.75;1.00;;;;;15.68;100.00;99568.16;5061461;28;45328;-78
2021/12/01 10:46:53;;;;;;;;;4.00;1.00;;;;;15.94;100.00;99573.34;5081051;28;45463;-78
2021/12/01 10:49:39;;;;;;;;;3.00;1.00;;;;;15.87;100.00;99571.50;5082828;28;45594;-79
2021/12/01 10:52:05;;;;;;;;;2.00;1.00;;;;;15.60;100.00;99562.84;5083372;28;45371;-78
2021/12/01 10:54:31;;;;;;;;;1.00;1.00;;;;;15.33;100.00;99568.41;5085460;28;45497;-78
2021/12/01 10:57:19;;;;;;;;;11.50;6.00;;;;;15.57;100.00;99576.47;5094512;27;46290;-78
2021/12/01 10:59:50;;;;;;;;;4.00;1.75;;;;;15.69;100.00;99572.50;5103385;27;45582;-78
2021/12/01 11:02:16;;;;;;;;;6.75;3.00;;;;;15.70;100.00;99574.16;5103676;27;45486;-79
2021/12/01 11:04:50;;;;;;;;;8.50;4.00;;;;;16.48;100.00;99566.44;5102867;27;45543;-79
2021/12/01 11:07:30;;;;;;;;;5.25;2.75;;;;;16.82;100.00;99566.25;5103004;27;48236;-79
2021/12/01 11:10:18;;;;;;;;;4.00;4.00;;;;;17.38;100.00;99561.66;5084994;27;45536;-79
2021/12/01 11:12:53;;;;;;;;;9.50;2.00;;;;;17.78;100.00;99549.88;5080576;28;45467;-80
2021/12/01 11:15:24;;;;;;;;;4.50;2.00;;;;;17.98;100.00;99557.41;5082699;28;45398;-79
2021/12/01 11:17:50;;;;;;;;;5.50;2.75;;;;;17.94;100.00;99549.72;5082486;28;45275;-79
2021/12/01 11:20:33;;;;;;;;;1.00;1.00;;;;;17.97;100.00;99550.38;5080958;28;45462;-79
2021/12/01 11:23:15;;;;;;;;;6.25;2.00;;;;;17.71;100.00;99550.75;5082935;28;45182;-79
2021/12/01 11:25:41;;;;;;;;;2.25;2.25;;;;;17.69;100.00;99552.78;5063475;28;45506;-78
2021/12/01 11:28:09;;;;;;;;;6.50;2.00;;;;;17.57;100.00;99537.13;5080272;28;45485;-78
2021/12/01 11:30:36;;;;;;;;;4.75;2.00;;;;;17.59;100.00;99547.63;5066516;28;45571;-80